Time;durP1;ratioP1;P1;durP2;ratioP2;P2;SDS_P1;SDS_P2;PMS_P1;PMS_P2;Temp;Humidity;BMP_temperature;BMP_pressure;BME280_temperature;BME280_humidity;BME280_pressure;Samples;Min_cycle;Max_cycle;Signal;HPM_P1;HPM_P2
2021/07/26 00:00:21;;;;;;;5.50;2.40;;;;;;;15.52;47.89;95039.81;5007440;28;20045;-68
2021/07/26 00:02:46;;;;;;;2.83;2.33;;;;;;;15.49;48.17;95037.56;5006939;28;20038;-68
2021/07/26 00:05:12;;;;;;;4.13;2.35;;;;;;;15.45;48.09;95037.22;5007356;28;20310;-68
2021/07/26 00:07:38;;;;;;;3.08;2.45;;;;;;;15.40;48.52;95039.72;5006685;28;20063;-68
2021/07/26 00:10:04;;;;;;;2.83;2.30;;;;;;;15.40;48.40;95044.28;5007404;28;20057;-68
2021/07/26 00:12:30;;;;;;;3.90;2.40;;;;;;;15.40;48.25;95042.41;5006694;28;20380;-68
2021/07/26 00:14:56;;;;;;;3.88;2.28;;;;;;;15.38;48.21;95038.31;5005235;28;20058;-68
2021/07/26 00:17:21;;;;;;;3.17;2.30;;;;;;;15.37;48.26;95037.50;5005760;28;20368;-68
2021/07/26 00:19:47;;;;;;;4.28;2.30;;;;;;;15.33;47.96;95033.63;5005850;28;20378;-68
2021/07/26 00:22:12;;;;;;;4.03;2.30;;;;;;;15.29;48.05;95027.88;5006855;28;20045;-67
2021/07/26 00:24:37;;;;;;;4.18;2.20;;;;;;;15.24;47.97;95031.22;5007029;28;20117;-68
2021/07/26 00:27:03;;;;;;;6.82;2.20;;;;;;;15.19;48.60;95033.75;5006726;28;20049;-68
2021/07/26 00:29:29;;;;;;;2.30;2.10;;;;;;;15.21;48.32;95030.88;5002551;28;20070;-67
2021/07/26 00:31:54;;;;;;;2.33;2.10;;;;;;;15.19;48.71;95036.44;5006419;28;20030;-68
2021/07/26 00:34:26;;;;;;;2.92;2.42;;;;;;;15.20;48.15;95027.34;5006421;28;20030;-68
2021/07/26 00:36:53;;;;;;;2.35;2.15;;;;;;;15.19;48.27;95019.53;5006538;28;20036;-68
2021/07/26 00:39:23;;;;;;;6.38;2.40;;;;;;;15.10;48.42;95019.03;5006468;28;20721;-68
2021/07/26 00:41:49;;;;;;;5.00;2.63;;;;;;;14.72;49.73;95024.25;5006694;28;20634;-69
2021/07/26 00:44:15;;;;;;;3.22;2.28;;;;;;;14.76;49.42;95024.69;4988821;28;20058;-68
2021/07/26 00:46:40;;;;;;;6.65;2.30;;;;;;;14.91;49.08;95024.34;5004645;28;20113;-68
2021/07/26 00:49:08;;;;;;;3.28;2.30;;;;;;;15.00;49.31;95024.06;5005610;28;20040;-68
2021/07/26 00:51:34;;;;;;;3.70;2.40;;;;;;;15.05;49.00;95017.00;5004633;28;20036;-68
2021/07/26 00:53:59;;;;;;;4.70;2.30;;;;;;;15.08;49.35;95010.38;5006728;28;20072;-68
2021/07/26 00:56:25;;;;;;;3.17;2.40;;;;;;;15.17;48.67;95011.72;5005772;28;20061;-68
2021/07/26 00:58:51;;;;;;;4.03;2.22;;;;;;;15.25;48.68;95010.59;5004910;28;20111;-68
2021/07/26 01:01:17;;;;;;;4.32;2.47;;;;;;;15.30;48.51;95018.00;5004847;28;20044;-68
2021/07/26 01:03:43;;;;;;;4.90;2.13;;;;;;;15.34;48.23;95014.63;5005787;28;20183;-68
2021/07/26 01:06:09;;;;;;;4.35;2.20;;;;;;;15.32;48.45;95005.16;5005276;28;20113;-68
2021/07/26 01:08:35;;;;;;;3.05;2.40;;;;;;;15.31;48.65;95008.91;5006179;28;20497;-68
2021/07/26 01:11:00;;;;;;;2.78;2.10;;;;;;;15.32;48.68;95010.53;5005416;28;20368;-68
2021/07/26 01:13:28;;;;;;;2.78;2.22;;;;;;;15.33;48.56;95004.16;5004716;28;20083;-68
2021/07/26 01:15:53;;;;;;;2.78;2.17;;;;;;;15.35;48.87;95002.03;5005766;28;20040;-68
2021/07/26 01:18:31;;;;;;;3.00;2.22;;;;;;;15.26;49.10;94993.47;5006033;28;20399;-69
2021/07/26 01:21:01;;;;;;;2.92;2.50;;;;;;;15.29;49.11;95001.06;5003191;28;20022;-68
2021/07/26 01:23:28;;;;;;;2.90;2.30;;;;;;;15.32;48.58;95002.47;5005025;28;20038;-68
2021/07/26 01:25:54;;;;;;;3.70;2.30;;;;;;;15.29;48.75;94994.88;5004745;28;20505;-68
2021/07/26 01:28:21;;;;;;;6.25;2.22;;;;;;;15.26;48.63;95000.72;5004599;28;20038;-68
2021/07/26 01:30:47;;;;;;;5.38;2.80;;;;;;;15.22;48.44;94997.63;5006087;28;20061;-68
2021/07/26 01:33:13;;;;;;;4.05;2.22;;;;;;;15.12;48.31;95003.50;5003907;28;20038;-68
2021/07/26 01:35:39;;;;;;;4.03;2.25;;;;;;;15.05;48.56;95003.59;5005055;28;20033;-68
2021/07/26 01:38:04;;;;;;;3.63;2.50;;;;;;;15.00;48.85;95007.97;5005825;28;20026;-69
2021/07/26 01:40:33;;;;;;;2.35;2.15;;;;;;;14.93;49.07;94997.31;5005161;28;20038;-68
2021/07/26 01:43:03;;;;;;;4.18;2.17;;;;;;;14.90;49.23;94997.75;5003797;28;20030;-68
2021/07/26 01:45:38;;;;;;;4.25;2.20;;;;;;;14.83;49.24;95011.22;5005420;28;20129;-68
2021/07/26 01:48:27;;;;;;;4.00;2.40;;;;;;;14.75;49.36;95009.63;5003980;28;20095;-68
2021/07/26 01:50:55;;;;;;;3.20;2.10;;;;;;;14.75;49.54;95017.66;5004212;28;20070;-68
2021/07/26 01:53:20;;;;;;;2.90;2.10;;;;;;;14.77;48.69;95022.81;5003799;28;20108;-68
2021/07/26 01:55:45;;;;;;;5.63;2.38;;;;;;;14.79;48.44;95026.09;5004956;28;20049;-68
2021/07/26 01:58:11;;;;;;;3.42;2.20;;;;;;;14.82;47.96;95020.31;5004456;28;20037;-67
2021/07/26 02:00:36;;;;;;;3.38;2.50;;;;;;;14.76;48.39;95023.84;5004271;28;20018;-69
2021/07/26 02:03:02;;;;;;;3.50;2.50;;;;;;;14.72;48.84;95023.44;5004570;28;20102;-68
2021/07/26 02:05:28;;;;;;;6.45;2.45;;;;;;;14.69;49.71;95026.56;5004927;28;20106;-68
2021/07/26 02:07:53;;;;;;;3.00;2.60;;;;;;;14.71;50.36;95028.00;5004379;28;20160;-68
2021/07/26 02:10:19;;;;;;;4.15;2.50;;;;;;;14.78;49.90;95032.47;5005067;28;20085;-68
2021/07/26 02:12:44;;;;;;;5.38;2.35;;;;;;;14.80;50.02;95030.41;5003661;28;20414;-68
2021/07/26 02:15:10;;;;;;;2.40;2.20;;;;;;;14.76;49.88;95035.41;5004874;28;20121;-68
2021/07/26 02:17:35;;;;;;;5.22;2.72;;;;;;;14.74;50.77;95037.47;5005436;28;20093;-68
2021/07/26 02:20:01;;;;;;;3.28;2.67;;;;;;;;;;5004953;28;20186;-68
2021/07/26 02:22:26;;;;;;;5.23;2.70;;;;;;;14.80;50.66;95043.81;5004663;28;20519;-67
2021/07/26 02:24:52;;;;;;;3.38;2.50;;;;;;;14.71;50.99;95035.19;5004850;28;20594;-68
2021/07/26 02:27:17;;;;;;;2.58;2.38;;;;;;;14.76;50.86;95039.94;5004839;28;20104;-68
2021/07/26 02:29:42;;;;;;;3.33;2.50;;;;;;;14.89;51.27;95039.00;5004630;28;20184;-72
2021/07/26 02:32:08;;;;;;;2.60;2.40;;;;;;;14.90;50.54;95040.63;5004944;28;20079;-68
2021/07/26 02:34:33;;;;;;;3.28;2.60;;;;;;;14.91;50.52;95042.28;5004033;28;20507;-68
2021/07/26 02:36:59;;;;;;;4.18;2.30;;;;;;;14.95;50.13;95040.78;5004851;28;20075;-68
2021/07/26 02:39:25;;;;;;;4.53;2.55;;;;;;;14.97;49.85;95047.59;5004704;28;20102;-68
2021/07/26 02:41:50;;;;;;;2.70;2.40;;;;;;;14.92;50.49;95049.28;5005211;28;20096;-68
2021/07/26 02:44:15;;;;;;;3.85;2.50;;;;;;;14.88;50.36;95043.53;5008203;28;20179;-68
2021/07/26 02:46:41;;;;;;;2.53;2.33;;;;;;;14.93;50.60;95046.38;5006207;28;20683;-67
2021/07/26 02:49:06;;;;;;;6.75;2.35;;;;;;;14.87;50.31;95047.25;5008838;28;20065;-68
2021/07/26 02:51:32;;;;;;;3.50;2.42;;;;;;;14.87;50.29;95041.91;5007979;28;20100;-72
2021/07/26 02:53:57;;;;;;;3.13;2.53;;;;;;;14.83;50.80;95046.06;5008642;28;20070;-68
2021/07/26 02:56:23;;;;;;;4.63;2.58;;;;;;;14.91;50.42;95053.00;5007555;28;20479;-68
2021/07/26 02:58:48;;;;;;;4.30;2.50;;;;;;;14.97;50.79;95054.81;5008548;28;20081;-68
2021/07/26 03:01:14;;;;;;;7.35;2.83;;;;;;;14.80;50.59;95050.00;5008239;28;20066;-68
2021/07/26 03:03:39;;;;;;;3.20;2.50;;;;;;;14.72;50.76;95048.38;5008152;28;20098;-68
2021/07/26 03:06:05;;;;;;;2.83;2.45;;;;;;;14.70;50.69;95050.47;5007514;28;20086;-68
2021/07/26 03:08:31;;;;;;;4.32;2.40;;;;;;;14.81;50.83;95064.19;5007692;28;20117;-68
2021/07/26 03:11:00;;;;;;;3.42;2.53;;;;;;;14.81;50.47;95056.16;5007780;28;20099;-68
2021/07/26 03:13:26;;;;;;;2.65;2.38;;;;;;;14.84;50.29;95059.25;5008546;28;20533;-68
2021/07/26 03:15:51;;;;;;;3.03;2.50;;;;;;;14.82;50.34;95060.50;5007914;28;20100;-68
2021/07/26 03:18:17;;;;;;;3.42;2.58;;;;;;;14.75;50.46;95059.75;5007831;28;20405;-68
2021/07/26 03:20:45;;;;;;;2.55;2.28;;;;;;;14.71;50.72;95059.31;5007926;28;20054;-68
2021/07/26 03:23:11;;;;;;;4.85;2.80;;;;;;;14.72;50.90;95060.94;5006275;28;20514;-68
2021/07/26 03:25:40;;;;;;;2.95;2.60;;;;;;;14.70;51.35;95076.44;5007949;28;20076;-68
2021/07/26 03:28:06;;;;;;;4.40;2.70;;;;;;;14.78;50.63;95072.66;5007279;28;20092;-68
2021/07/26 03:30:32;;;;;;;6.28;2.50;;;;;;;14.84;50.74;95069.13;5006668;28;20081;-68
2021/07/26 03:32:57;;;;;;;5.00;2.40;;;;;;;14.86;50.16;95075.09;5007354;28;20064;-68
2021/07/26 03:35:23;;;;;;;3.28;2.38;;;;;;;14.86;50.09;95077.78;5005869;28;20565;-69
2021/07/26 03:37:49;;;;;;;5.03;2.60;;;;;;;14.85;50.28;95071.59;5005736;28;20130;-68
2021/07/26 03:40:14;;;;;;;3.60;2.30;;;;;;;14.87;50.12;95074.06;5007461;28;20455;-68
2021/07/26 03:42:41;;;;;;;2.58;2.38;;;;;;;14.87;50.18;95070.53;5007277;28;20528;-68
2021/07/26 03:45:07;;;;;;;3.03;2.53;;;;;;;14.76;50.51;95066.72;5005757;28;20058;-68
2021/07/26 03:47:32;;;;;;;3.42;2.53;;;;;;;14.76;50.18;95072.09;5005775;28;20204;-68
2021/07/26 03:49:58;;;;;;;3.28;2.20;;;;;;;14.77;50.20;95079.06;5006537;28;20025;-69
2021/07/26 03:52:23;;;;;;;4.25;2.67;;;;;;;14.81;50.00;95083.78;5007259;28;20041;-68
2021/07/26 03:54:49;;;;;;;4.03;2.65;;;;;;;14.83;49.76;95083.56;5006954;28;20038;-67
2021/07/26 03:57:14;;;;;;;4.78;2.72;;;;;;;14.77;49.91;95087.13;5007610;28;20120;-68
2021/07/26 03:59:40;;;;;;;4.85;2.85;;;;;;;14.69;50.33;95083.63;5007004;28;20034;-68
2021/07/26 04:02:05;;;;;;;4.00;2.40;;;;;;;14.71;50.23;95091.44;5007559;28;20530;-68
2021/07/26 04:04:31;;;;;;;6.20;2.40;;;;;;;14.71;50.32;95086.94;5006454;28;20034;-68
2021/07/26 04:07:00;;;;;;;3.15;2.25;;;;;;;14.78;50.37;95080.72;5006848;28;20148;-68
2021/07/26 04:09:30;;;;;;;2.65;2.45;;;;;;;14.84;49.92;95085.22;5007193;28;20066;-68
2021/07/26 04:12:03;;;;;;;5.13;2.60;;;;;;;14.87;50.35;95084.78;5006789;28;20092;-68
2021/07/26 04:14:32;;;;;;;4.50;2.65;;;;;;;14.98;49.56;95083.25;5006870;28;20094;-68
2021/07/26 04:16:57;;;;;;;3.92;2.47;;;;;;;15.01;50.12;95080.13;5005142;28;20477;-69
2021/07/26 04:19:22;;;;;;;3.53;2.50;;;;;;;15.12;49.91;95081.25;5007247;28;20033;-68
2021/07/26 04:21:48;;;;;;;3.17;2.47;;;;;;;15.23;49.81;95080.53;5005818;28;20037;-68
2021/07/26 04:24:13;;;;;;;3.97;2.63;;;;;;;15.32;49.47;95090.97;5006750;28;20084;-68
2021/07/26 04:26:39;;;;;;;4.95;2.67;;;;;;;15.39;49.12;95090.91;5006691;28;20483;-68
2021/07/26 04:29:04;;;;;;;4.25;3.00;;;;;;;15.42;49.30;95083.25;5007246;28;20037;-69
2021/07/26 04:31:30;;;;;;;3.80;2.63;;;;;;;15.54;49.31;95087.88;5006123;28;20103;-68
2021/07/26 04:33:55;;;;;;;5.57;3.38;;;;;;;15.68;49.15;95089.41;5006117;28;20376;-68
2021/07/26 04:36:20;;;;;;;4.70;3.05;;;;;;;15.76;49.18;95088.28;5005328;28;20078;-68
2021/07/26 04:38:46;;;;;;;6.18;3.30;;;;;;;15.83;49.07;95091.72;5006455;28;20029;-68
2021/07/26 04:41:12;;;;;;;7.03;3.10;;;;;;;15.92;48.84;95086.03;5006900;28;20443;-68
2021/07/26 04:43:38;;;;;;;8.15;3.17;;;;;;;16.02;48.45;95088.19;5006402;28;20586;-68
2021/07/26 04:46:04;;;;;;;3.80;2.80;;;;;;;16.08;48.54;95092.66;5006524;28;20034;-68
2021/07/26 04:48:30;;;;;;;4.65;3.03;;;;;;;16.12;48.25;95093.84;5004699;28;20046;-69
2021/07/26 04:50:55;;;;;;;9.70;3.53;;;;;;;16.18;48.45;95098.28;5006113;28;20030;-68
2021/07/26 04:53:21;;;;;;;3.75;2.80;;;;;;;16.18;48.23;95092.94;5006059;28;20030;-68
2021/07/26 04:55:46;;;;;;;4.93;2.88;;;;;;;16.19;48.37;95099.97;5005871;28;20464;-71
2021/07/26 04:58:12;;;;;;;4.53;2.95;;;;;;;16.15;48.15;95109.53;5005824;28;20109;-69
2021/07/26 05:00:37;;;;;;;5.10;2.88;;;;;;;16.16;48.01;95107.63;5006493;28;20355;-68
2021/07/26 05:03:09;;;;;;;3.47;2.63;;;;;;;16.18;48.59;95109.03;5005927;28;20088;-68
2021/07/26 05:05:35;;;;;;;4.32;2.95;;;;;;;16.19;47.74;95113.38;5005041;28;20377;-68
2021/07/26 05:08:01;;;;;;;5.63;2.90;;;;;;;16.23;47.87;95103.81;5004463;28;20096;-68
2021/07/26 05:10:26;;;;;;;3.92;2.30;;;;;;;16.29;47.78;95103.97;5005804;28;20657;-68
2021/07/26 05:12:52;;;;;;;2.58;2.30;;;;;;;16.35;47.75;95111.16;5007144;28;20029;-68
2021/07/26 05:15:17;;;;;;;4.22;2.53;;;;;;;16.43;47.95;95115.38;5005531;28;20293;-68
2021/07/26 05:17:43;;;;;;;7.15;3.03;;;;;;;16.46;47.62;95113.03;5006622;28;20049;-68
2021/07/26 05:20:08;;;;;;;3.38;2.70;;;;;;;16.52;47.30;95109.44;5005773;28;20092;-69
2021/07/26 05:22:34;;;;;;;6.43;2.67;;;;;;;16.63;47.12;95115.09;5006013;28;20110;-68
2021/07/26 05:24:59;;;;;;;4.25;2.67;;;;;;;16.74;47.24;95110.78;5004158;28;20604;-68
2021/07/26 05:27:28;;;;;;;3.30;2.60;;;;;;;16.88;46.75;95116.78;5001952;28;20100;-68
2021/07/26 05:29:53;;;;;;;4.68;2.90;;;;;;;16.93;46.62;95116.91;5005544;28;20029;-68
2021/07/26 05:32:19;;;;;;;5.03;2.80;;;;;;;17.07;46.96;95109.47;5003952;28;20118;-68
2021/07/26 05:34:46;;;;;;;5.03;2.65;;;;;;;17.18;46.32;95107.88;5004935;28;20110;-68
2021/07/26 05:37:11;;;;;;;3.03;2.70;;;;;;;17.29;46.04;95103.53;5004886;28;20037;-70
2021/07/26 05:39:37;;;;;;;5.22;2.67;;;;;;;17.44;45.92;95102.25;5005361;28;20041;-71
2021/07/26 05:42:02;;;;;;;3.90;2.60;;;;;;;17.60;45.84;95106.09;5005926;28;20038;-68
2021/07/26 05:44:28;;;;;;;4.70;2.47;;;;;;;17.79;45.54;95102.19;5005642;28;20030;-68
2021/07/26 05:46:53;;;;;;;3.33;2.60;;;;;;;18.04;45.12;95106.53;5000859;28;20068;-68
2021/07/26 05:49:19;;;;;;;2.92;2.50;;;;;;;18.21;44.73;95110.31;5005011;28;20026;-69
2021/07/26 05:51:44;;;;;;;4.32;2.63;;;;;;;18.35;45.53;95110.88;5003817;28;20073;-68
2021/07/26 05:54:10;;;;;;;4.80;2.28;;;;;;;18.43;44.77;95113.19;5005128;28;20053;-68
2021/07/26 05:56:41;;;;;;;2.47;2.03;;;;;;;18.72;44.50;95113.19;5003504;28;20029;-68
2021/07/26 05:59:07;;;;;;;3.08;2.20;;;;;;;19.05;43.45;95108.06;5004994;28;20069;-69
2021/07/26 06:01:46;;;;;;;2.90;2.20;;;;;;;19.28;42.78;95111.69;5005778;28;20034;-69
2021/07/26 06:04:11;;;;;;;2.25;2.00;;;;;;;19.50;42.55;95111.75;5004624;28;20131;-69
2021/07/26 06:06:40;;;;;;;3.63;2.35;;;;;;;19.59;41.83;95115.66;5004758;28;20483;-68
2021/07/26 06:09:06;;;;;;;2.83;2.20;;;;;;;18.62;43.31;95116.53;5005230;28;20050;-68
2021/07/26 06:11:32;;;;;;;2.47;2.13;;;;;;;19.15;42.96;95108.25;5005099;28;20111;-68
2021/07/26 06:13:57;;;;;;;2.35;2.10;;;;;;;19.46;42.84;95107.91;5005146;28;20526;-68
2021/07/26 06:16:23;;;;;;;2.25;2.05;;;;;;;19.57;42.41;95114.28;5004011;28;20038;-69
2021/07/26 06:18:48;;;;;;;4.00;2.50;;;;;;;19.33;41.85;95117.16;5004744;28;20387;-68
2021/07/26 06:21:13;;;;;;;2.25;2.05;;;;;;;19.38;42.73;95111.84;5005357;28;20030;-69
2021/07/26 06:23:39;;;;;;;4.93;2.40;;;;;;;18.92;43.31;95109.22;5005305;28;20046;-69
2021/07/26 06:26:05;;;;;;;5.32;2.30;;;;;;;18.90;43.01;95114.03;5003344;28;20025;-68
2021/07/26 06:28:32;;;;;;;3.78;2.10;;;;;;;18.99;42.92;95109.88;5005313;28;20076;-69
2021/07/26 06:30:57;;;;;;;3.53;2.10;;;;;;;19.39;42.27;95109.97;5004639;28;20076;-68
2021/07/26 06:33:22;;;;;;;6.05;2.42;;;;;;;19.41;41.89;95110.56;5004298;28;20042;-68
2021/07/26 06:35:48;;;;;;;2.60;2.33;;;;;;;19.42;41.64;95112.19;5003223;28;20322;-68
2021/07/26 06:38:14;;;;;;;3.30;2.63;;;;;;;19.44;41.14;95110.03;4995704;28;20372;-69
2021/07/26 06:40:43;;;;;;;4.72;2.60;;;;;;;18.87;42.95;95117.22;5002814;28;20448;-68
2021/07/26 06:43:08;;;;;;;5.28;2.50;;;;;;;18.54;43.79;95120.41;5001586;28;20034;-69
2021/07/26 06:45:34;;;;;;;3.38;2.72;;;;;;;17.91;45.62;95117.53;5006588;28;20033;-69
2021/07/26 06:47:59;;;;;;;3.45;2.75;;;;;;;18.02;45.11;95121.28;4998092;28;20041;-68
2021/07/26 06:50:25;;;;;;;4.22;2.70;;;;;;;18.56;43.82;95126.34;5000990;28;20040;-68
2021/07/26 06:52:50;;;;;;;4.07;2.50;;;;;;;18.49;43.90;95122.19;5001415;28;20454;-68
2021/07/26 06:55:15;;;;;;;3.03;2.25;;;;;;;19.09;42.68;95120.00;5000281;28;20033;-68
2021/07/26 06:57:41;;;;;;;3.53;2.35;;;;;;;19.75;41.82;95121.25;5000193;28;20033;-69
2021/07/26 07:00:07;;;;;;;3.95;2.55;;;;;;;19.24;41.95;95121.31;5001826;28;20530;-69
2021/07/26 07:02:32;;;;;;;6.53;2.60;;;;;;;19.11;42.83;95128.69;4999881;28;20060;-69
2021/07/26 07:04:58;;;;;;;4.82;2.90;;;;;;;18.07;44.05;95131.31;5000960;28;20030;-69
2021/07/26 07:07:23;;;;;;;4.53;3.70;;;;;;;18.27;44.78;95123.66;4999237;28;20033;-68
2021/07/26 07:09:49;;;;;;;3.80;2.60;;;;;;;19.74;40.81;95122.34;5003648;28;20051;-68
2021/07/26 07:12:17;;;;;;;6.97;3.05;;;;;;;18.95;42.45;95120.34;5000906;28;20042;-68
2021/07/26 07:14:43;;;;;;;3.67;2.60;;;;;;;18.58;43.94;95122.63;4998086;28;20046;-69
2021/07/26 07:17:08;;;;;;;4.78;2.50;;;;;;;17.87;46.00;95127.16;4999090;28;20045;-68
2021/07/26 07:19:37;;;;;;;4.32;2.53;;;;;;;18.15;44.93;95126.38;5002885;28;20038;-68
2021/07/26 07:22:02;;;;;;;3.42;2.78;;;;;;;18.24;44.17;95118.75;5001056;28;20041;-68
2021/07/26 07:24:28;;;;;;;5.60;2.90;;;;;;;18.07;45.91;95126.78;5005456;28;20053;-68
2021/07/26 07:26:53;;;;;;;4.22;2.90;;;;;;;17.74;47.46;95129.00;5000280;28;20292;-69
2021/07/26 07:29:18;;;;;;;2.92;2.63;;;;;;;17.69;45.10;95126.22;5005109;28;20494;-68
2021/07/26 07:31:44;;;;;;;3.42;2.90;;;;;;;15.82;50.96;95141.06;5002556;28;20395;-68
2021/07/26 07:34:11;;;;;;;5.90;3.38;;;;;;;16.69;48.67;95132.97;5007551;28;20471;-68
2021/07/26 07:36:36;;;;;;;4.65;2.55;;;;;;;18.24;45.52;95132.22;5006585;28;20591;-69
2021/07/26 07:39:02;;;;;;;4.15;2.50;;;;;;;18.78;44.12;95130.28;5002194;28;20058;-69
2021/07/26 07:41:27;;;;;;;5.13;2.83;;;;;;;19.57;42.31;95134.00;5001985;28;20033;-69
2021/07/26 07:43:53;;;;;;;4.18;2.60;;;;;;;19.38;43.42;95133.44;5002289;28;20049;-69
2021/07/26 07:46:19;;;;;;;4.95;2.70;;;;;;;19.03;44.25;95143.38;5003851;28;20033;-68
2021/07/26 07:48:46;;;;;;;36.93;7.00;;;;;;;19.18;42.26;95150.91;5002192;28;20030;-69
2021/07/26 07:51:11;;;;;;;4.00;2.75;;;;;;;19.86;41.96;95146.56;5004889;28;20038;-69
2021/07/26 07:53:37;;;;;;;4.18;2.80;;;;;;;19.41;41.48;95148.34;5002773;28;20073;-69
2021/07/26 07:56:03;;;;;;;4.20;2.70;;;;;;;20.33;40.08;95156.06;5001750;28;20112;-69
2021/07/26 07:58:28;;;;;;;4.93;2.47;;;;;;;20.08;42.15;95146.59;5001756;28;20459;-69
2021/07/26 08:00:56;;;;;;;2.58;2.38;;;;;;;20.13;41.04;95147.72;5007698;28;20375;-69
2021/07/26 08:03:21;;;;;;;5.72;2.72;;;;;;;20.74;39.46;95155.72;5001207;28;20522;-69
2021/07/26 08:05:47;;;;;;;4.53;2.50;;;;;;;19.12;42.44;95146.50;5002642;28;20036;-70
2021/07/26 08:08:13;;;;;;;11.18;5.97;;;;;;;18.68;44.13;95149.78;5001154;28;20109;-70
2021/07/26 08:10:38;;;;;;;12.52;5.60;;;;;;;20.16;39.91;95145.31;5001020;28;20098;-69
2021/07/26 08:13:04;;;;;;;3.35;2.30;;;;;;;19.99;40.23;95150.81;5002174;28;20082;-69
2021/07/26 08:15:29;;;;;;;2.30;2.10;;;;;;;20.33;39.26;95147.97;5001339;28;20049;-69
2021/07/26 08:17:55;;;;;;;4.75;2.75;;;;;;;19.99;40.34;95153.50;5002617;28;20114;-70
2021/07/26 08:20:20;;;;;;;5.88;2.63;;;;;;;18.76;41.99;95156.69;5002187;28;20106;-70
2021/07/26 08:22:46;;;;;;;39.50;11.40;;;;;;;19.11;42.02;95154.84;5002941;28;20599;-70
2021/07/26 08:25:12;;;;;;;7.32;3.30;;;;;;;20.11;39.82;95161.47;5002270;28;20038;-69
2021/07/26 08:27:54;;;;;;;3.25;2.50;;;;;;;21.17;37.06;95146.13;5002017;28;20045;-69
2021/07/26 08:30:24;;;;;;;7.22;2.78;;;;;;;21.02;37.76;95152.22;5002500;28;20034;-70
2021/07/26 08:32:49;;;;;;;6.32;2.80;;;;;;;20.64;37.97;95152.13;5002895;28;20083;-69
2021/07/26 08:35:15;;;;;;;8.38;3.30;;;;;;;21.63;36.76;95151.91;5002329;28;20471;-69
2021/07/26 08:37:41;;;;;;;2.70;2.13;;;;;;;20.97;37.35;95153.00;5000650;28;20125;-69
2021/07/26 08:40:07;;;;;;;2.58;2.10;;;;;;;20.38;38.69;95168.00;5001373;28;20084;-69
2021/07/26 08:42:32;;;;;;;3.67;2.40;;;;;;;18.32;41.92;95176.81;5002603;28;20041;-69
2021/07/26 08:44:58;;;;;;;4.53;2.35;;;;;;;20.52;37.73;95168.44;5001068;28;20515;-69
2021/07/26 08:47:23;;;;;;;15.05;5.65;;;;;;;20.84;37.66;95163.13;5000518;28;20037;-69
2021/07/26 08:49:50;;;;;;;2.83;2.22;;;;;;;20.25;38.60;95180.84;5003097;28;20475;-69
2021/07/26 08:52:16;;;;;;;2.92;2.13;;;;;;;20.98;36.74;95163.53;5000676;28;20066;-69
2021/07/26 08:54:43;;;;;;;9.30;3.00;;;;;;;21.36;36.29;95179.06;5000677;28;20033;-69
2021/07/26 08:57:09;;;;;;;2.35;2.10;;;;;;;21.87;35.04;95166.94;4999825;28;20442;-69
2021/07/26 08:59:34;;;;;;;3.08;2.20;;;;;;;20.46;38.35;95183.78;5000661;28;20037;-69
2021/07/26 09:02:00;;;;;;;2.38;1.90;;;;;;;21.24;36.20;95171.91;5001215;28;20097;-69
2021/07/26 09:04:25;;;;;;;3.92;2.58;;;;;;;20.91;36.71;95167.53;5001860;28;20034;-70
2021/07/26 09:06:52;;;;;;;4.03;1.85;;;;;;;21.24;36.62;95161.06;5001538;28;20059;-68
2021/07/26 09:09:18;;;;;;;4.53;2.40;;;;;;;20.45;37.46;95171.34;4994421;28;20049;-69
2021/07/26 09:11:44;;;;;;;7.40;2.30;;;;;;;20.32;38.31;95165.25;5001493;28;20068;-69
2021/07/26 09:14:10;;;;;;;2.97;2.00;;;;;;;20.06;38.34;95164.13;5001196;28;20292;-69
2021/07/26 09:16:35;;;;;;;4.00;2.20;;;;;;;20.33;37.30;95175.00;5001581;28;20127;-69
2021/07/26 09:19:05;;;;;;;4.03;2.38;;;;;;;20.93;36.11;95185.13;5001398;28;20050;-68
2021/07/26 09:21:52;;;;;;;2.78;2.38;;;;;;;20.23;38.10;95174.88;5002338;28;20515;-69
2021/07/26 09:24:24;;;;;;;3.97;2.10;;;;;;;20.96;36.42;95176.53;4996860;28;20117;-68
2021/07/26 09:26:50;;;;;;;4.22;2.90;;;;;;;21.30;35.68;95172.78;4996685;28;20040;-69
2021/07/26 09:29:30;;;;;;;9.45;5.05;;;;;;;21.40;36.56;95173.94;5001951;28;20025;-70
2021/07/26 09:31:57;;;;;;;4.55;2.35;;;;;;;21.66;34.42;95183.09;4998385;28;20038;-69
2021/07/26 09:34:23;;;;;;;6.78;3.53;;;;;;;21.97;35.07;95177.88;5001922;28;20018;-69
2021/07/26 09:36:49;;;;;;;4.03;2.60;;;;;;;21.84;35.73;95176.41;5000763;28;20672;-69
2021/07/26 09:39:23;;;;;;;3.55;2.90;;;;;;;23.10;34.45;95175.84;5000420;28;20034;-69
2021/07/26 09:41:49;;;;;;;2.67;2.40;;;;;;;23.04;32.56;95174.19;5001830;28;20087;-69
2021/07/26 09:44:14;;;;;;;2.55;2.10;;;;;;;23.00;32.29;95171.22;5000000;28;20038;-69
2021/07/26 09:46:41;;;;;;;3.33;2.00;;;;;;;23.18;32.07;95171.78;4980403;28;20045;-69
2021/07/26 09:49:14;;;;;;;4.80;2.20;;;;;;;22.47;34.36;95163.19;4997302;28;20045;-69
2021/07/26 09:51:40;;;;;;;8.40;3.47;;;;;;;23.26;33.43;95165.84;4999553;28;20064;-69
2021/07/26 09:54:05;;;;;;;5.40;2.55;;;;;;;21.02;36.73;95179.25;5001252;28;20475;-69
2021/07/26 09:56:32;;;;;;;3.42;2.22;;;;;;;21.98;35.43;95165.97;5001280;28;20038;-70
2021/07/26 09:58:58;;;;;;;3.97;2.50;;;;;;;21.22;35.79;95170.53;5000292;28;20053;-69
2021/07/26 10:01:23;;;;;;;3.70;2.08;;;;;;;22.07;34.71;95187.97;5001331;28;20119;-69
2021/07/26 10:03:51;;;;;;;3.00;2.10;;;;;;;21.06;36.58;95199.31;5000813;28;20041;-69
2021/07/26 10:06:18;;;;;;;4.30;3.15;;;;;;;21.77;36.00;95190.19;5000389;28;20030;-67
2021/07/26 10:08:43;;;;;;;;;;;;;;;22.07;36.33;95193.38;4984062;28;20054;-69
2021/07/26 10:11:09;;;;;;;5.30;3.20;;;;;;;21.58;37.29;95197.91;5001306;28;19924;-69
2021/07/26 10:13:35;;;;;;;10.05;5.05;;;;;;;21.81;36.42;95189.66;5000906;28;20034;-69
2021/07/26 10:16:00;;;;;;;9.50;5.70;;;;;;;21.55;37.02;95197.63;4999994;28;20117;-69
2021/07/26 10:18:26;;;;;;;8.75;4.15;;;;;;;21.86;36.92;95198.63;5005595;28;20033;-68
2021/07/26 10:20:59;;;;;;;8.20;6.03;;;;;;;21.73;36.41;95207.22;5004445;28;20029;-69
2021/07/26 10:23:35;;;;;;;10.32;6.30;;;;;;;21.73;37.26;95209.94;5001944;28;20511;-69
2021/07/26 10:26:03;;;;;;;9.43;6.53;;;;;;;21.67;36.68;95214.50;5003443;28;20030;-69
2021/07/26 10:28:37;;;;;;;6.22;4.60;;;;;;;21.69;37.28;95219.66;4987239;28;20052;-69
2021/07/26 10:31:03;;;;;;;6.38;4.78;;;;;;;21.86;38.03;95220.31;5002830;28;20193;-69
2021/07/26 10:33:29;;;;;;;5.55;4.30;;;;;;;22.09;37.19;95231.06;4986863;28;20034;-69
2021/07/26 10:35:54;;;;;;;6.03;3.53;;;;;;;22.24;37.33;95224.91;5003132;28;20027;-69
2021/07/26 10:38:41;;;;;;;9.75;5.07;;;;;;;22.29;36.73;95216.78;5002915;28;20037;-69
2021/07/26 10:41:07;;;;;;;4.38;3.67;;;;;;;22.51;37.34;95221.25;5004084;28;20022;-69
2021/07/26 10:43:55;;;;;;;5.70;3.67;;;;;;;22.84;36.81;95224.63;5005303;28;20149;-70
2021/07/26 10:46:20;;;;;;;4.88;3.80;;;;;;;22.44;36.81;95210.66;5004196;28;20021;-70
2021/07/26 10:48:50;;;;;;;4.32;3.33;;;;;;;22.63;37.87;95211.00;4998608;28;20420;-69
2021/07/26 10:51:37;;;;;;;3.13;2.80;;;;;;;23.17;37.87;95213.59;5004167;28;20038;-69
2021/07/26 10:54:02;;;;;;;4.53;2.83;;;;;;;23.53;35.52;95204.69;5004477;28;20045;-69
2021/07/26 10:56:28;;;;;;;2.80;2.40;;;;;;;23.73;37.40;95203.03;5002776;28;20562;-69
2021/07/26 10:59:00;;;;;;;3.43;2.67;;;;;;;24.29;35.15;95199.41;5003919;28;20152;-69
2021/07/26 11:01:26;;;;;;;5.22;2.40;;;;;;;24.13;34.99;95200.56;5004530;28;20168;-70
2021/07/26 11:03:55;;;;;;;2.60;2.40;;;;;;;24.32;34.92;95192.59;5005851;28;20486;-70
2021/07/26 11:06:36;;;;;;;3.00;2.20;;;;;;;24.37;34.37;95194.53;5007518;28;20463;-69
2021/07/26 11:09:19;;;;;;;3.83;2.13;;;;;;;23.95;34.87;95194.59;5008061;28;21131;-69
2021/07/26 11:11:49;;;;;;;2.58;2.10;;;;;;;23.34;33.62;95194.34;5007726;28;20225;-69
2021/07/26 11:14:14;;;;;;;3.65;2.40;;;;;;;23.16;35.05;95188.38;5007908;28;20217;-70
2021/07/26 11:16:49;;;;;;;6.03;2.23;;;;;;;23.78;35.08;95184.03;5008245;28;20078;-70
2021/07/26 11:19:47;;;;;;;2.92;2.10;;;;;;;24.23;34.40;95189.63;5001674;28;20606;-73
2021/07/26 11:22:15;;;;;;;2.60;2.20;;;;;;;24.37;33.47;95184.44;5005489;28;20116;-69
2021/07/26 11:24:40;;;;;;;4.38;2.25;;;;;;;24.22;32.97;95187.19;5008226;28;20097;-69
2021/07/26 11:27:13;;;;;;;4.53;2.37;;;;;;;21.17;39.07;95186.72;5006175;28;20042;-69
2021/07/26 11:29:38;;;;;;;3.72;2.17;;;;;;;23.30;35.38;95180.50;5007699;28;20059;-70
2021/07/26 11:32:04;;;;;;;3.40;2.40;;;;;;;22.90;35.16;95177.44;5007636;28;20030;-70